Terminal Aerodrome Forecast
Issued by NWS Cleveland, OH

Home | Current Version | Previous Version | Graphics & Text | Print | Product List | Glossary On
Versions: 1 2 3 4 5 6 7 8 9 10 11 12 13 14 15 16 17 18 19
373
FTUS41 KCLE 132337
TAFMFD
TAF
KMFD 132337Z 1400/1424 04007KT P6SM SCT100 OVC250
     FM140800 08004KT P6SM OVC100
     FM141300 08004KT P6SM OVC050
     FM141800 29004KT P6SM OVC100=

USA.gov is the U.S. government's official web portal to all federal, state and local government web resources and services.